Blessing Sw — 3FIP7 — position and weather

sailwx.info

Track history (hours):
 
Tides and Currents Weather Stations Pressure Air Temp Water Temp Dewpoint Dewpoint Depression Visibility Wind Speed Wind Dir Waves Ship Positions

Blessing Sw

Last reported at 2015-Jan-18 09:23 UTC. Time now 2015-Jan-30 15:30 UTC.
Position S 25°36' E 154°06'.
Warning: this ship's position is 12 days out of date.

Length 171 m; draft 9.6 m.

Type: Cargo ship. MMSI: 372085000.

Date/timePositionNaut miles runAvg speedWind from/ knotsBaromVisibWave heightAir tempDewpointWater temp
2015-Jan-18 09:23S 25°36' E 154°06'7 9.0
2015-Jan-18 08:33S 25°43' E 154°06'27 9.1
2015-Jan-18 05:33S 26°10' E 154°06'10 9.8
2015-Jan-18 04:33S 26°20' E 154°06'89 9.8
2015-Jan-17 19:30S 27°49' E 154°02'102 9.3
2015-Jan-17 08:34S 29°29' E 153°39'189 9.0
2015-Jan-16 11:29S 32°34' E 152°53'6 6.8
2015-Jan-16 10:34S 32°40' E 152°51'9 7.0
2015-Jan-16 09:17S 32°48' E 152°48'7 7.1
2015-Jan-16 08:19S 32°55' E 152°46'282 9.7
2015-Jan-15 03:14S 37°09' E 150°19'2011.5
2015-Jan-15 01:30S 37°27' E 150°07'1212.5
2015-Jan-15 00:32S 37°38' E 150°00'1212.0
2015-Jan-14 23:33S 37°46' E 149°50'1211.6
2015-Jan-14 22:31S 37°54' E 149°39'12711.5
2015-Jan-14 11:28S 39°02' E 147°22'1212.9
2015-Jan-14 10:33S 39°06' E 147°08'1312.6
2015-Jan-14 09:33S 39°11' E 146°53'1212.5
2015-Jan-14 08:34S 39°16' E 146°38'1211.8
2015-Jan-14 07:33S 39°17' E 146°23'1111.4
2015-Jan-14 06:34S 39°16' E 146°09'219 5.7
2015-Jan-12 16:10S 38°21' E 141°37'0 0.0
2015-Jan-12 12:31S 38°21' E 141°37'0 0.0
2015-Jan-12 09:31S 38°21' E 141°37'0 0.0
2015-Jan-12 08:16S 38°21' E 141°37'0 0.0
2015-Jan-12 07:33S 38°21' E 141°37'0 0.0
2015-Jan-12 06:22S 38°21' E 141°37'0 0.0
2015-Jan-12 05:16S 38°21' E 141°37'0 0.0
2015-Jan-11 19:26S 38°21' E 141°37'0 0.0
2015-Jan-11 16:19S 38°21' E 141°37'0 0.0
2015-Jan-11 12:32S 38°21' E 141°37'0 0.0
2015-Jan-11 11:04S 38°21' E 141°37'0 0.0
2015-Jan-11 02:28S 38°21' E 141°37'0 0.0
2015-Jan-10 23:28S 38°21' E 141°37'4 3.8
2015-Jan-10 22:22S 38°19' E 141°42'0 0.2
2015-Jan-10 21:31S 38°19' E 141°41'0 0.1
2015-Jan-10 20:24S 38°19' E 141°41'0 0.0
2015-Jan-10 19:09S 38°19' E 141°41'0 0.0
2015-Jan-10 18:28S 38°19' E 141°41'0 0.0
2015-Jan-10 17:33S 38°19' E 141°41'0 0.1
2015-Jan-10 16:31S 38°19' E 141°41'0 0.1
2015-Jan-10 15:30S 38°19' E 141°41'0 0.0
2015-Jan-10 14:34S 38°19' E 141°41'0 0.0
2015-Jan-10 13:24S 38°19' E 141°41'0 0.1
2015-Jan-10 12:31S 38°19' E 141°41'0 0.0
2015-Jan-10 11:33S 38°19' E 141°41'0 0.1
2015-Jan-10 10:30S 38°19' E 141°41'0 0.0
2015-Jan-10 09:25S 38°19' E 141°41'0 0.0
2015-Jan-10 08:30S 38°19' E 141°41'0 0.0
2015-Jan-10 07:34S 38°19' E 141°41'0 0.0
2015-Jan-10 06:31S 38°19' E 141°41'0 0.0
2015-Jan-10 05:33S 38°19' E 141°41'0 0.0
2015-Jan-10 04:24S 38°19' E 141°41'0 0.0
2015-Jan-10 03:28S 38°19' E 141°41'0 0.0
2015-Jan-10 02:30S 38°19' E 141°41'0 0.0
2015-Jan-10 01:24S 38°19' E 141°41'0 0.1
2015-Jan-10 00:28S 38°19' E 141°41'0 0.0
2015-Jan-09 23:27S 38°19' E 141°41'0 0.0
2015-Jan-09 22:24S 38°19' E 141°41'0 0.0
2015-Jan-09 16:21S 38°19' E 141°41'0 0.0
2015-Jan-09 15:33S 38°19' E 141°41'0 0.0
2015-Jan-09 13:24S 38°19' E 141°41'0 0.1
2015-Jan-09 12:33S 38°19' E 141°41'0 0.0
2015-Jan-09 11:27S 38°19' E 141°41'0 0.0
2015-Jan-09 10:31S 38°19' E 141°41'0 0.0
2015-Jan-09 09:30S 38°19' E 141°41'0 0.0
2015-Jan-09 08:18S 38°19' E 141°41'0 0.1
2015-Jan-09 07:30S 38°19' E 141°41'0 0.0
2015-Jan-09 06:18S 38°19' E 141°41'0 0.1
2015-Jan-09 05:31S 38°19' E 141°41'0 0.1
2015-Jan-09 04:33S 38°19' E 141°41'0 0.0
2015-Jan-09 03:27S 38°19' E 141°41'0 0.1
2015-Jan-09 02:33S 38°19' E 141°41'0 0.0
2015-Jan-09 01:24S 38°19' E 141°41'0 0.0
2015-Jan-09 00:31S 38°19' E 141°41'0 0.0
2015-Jan-08 22:28S 38°19' E 141°41'0 0.0
2015-Jan-08 21:28S 38°19' E 141°41'0 0.0
2015-Jan-08 20:33S 38°19' E 141°41'0 0.1
2015-Jan-08 19:34S 38°19' E 141°41'0 0.0
2015-Jan-08 18:30S 38°19' E 141°41'0 0.0
2015-Jan-08 17:30S 38°19' E 141°41'0 0.0
2015-Jan-08 16:33S 38°19' E 141°41'0 0.0
2015-Jan-08 15:33S 38°19' E 141°42'0 0.1
2015-Jan-08 14:34S 38°19' E 141°41'0 0.0
2015-Jan-08 13:33S 38°19' E 141°41'0 0.0
2015-Jan-08 12:33S 38°19' E 141°41'0 0.0
2015-Jan-08 11:34S 38°19' E 141°42'0 0.0
2015-Jan-08 10:33S 38°19' E 141°42'0 0.0
2015-Jan-08 09:33S 38°19' E 141°42'  
Track history (hours):
 
Tides and Currents Weather Stations Pressure Air Temp Water Temp Dewpoint Dewpoint Depression Visibility Wind Speed Wind Dir Waves Ship Positions

Blessing Sw

Last reported at 2015-Jan-18 09:23 UTC. Time now 2015-Jan-30 15:30 UTC.
Position S 25°36' E 154°06'.
Warning: this ship's position is 12 days out of date.

Length 171 m; draft 9.6 m.

Type: Cargo ship. MMSI: 372085000.

Date/timePositionNaut miles runAvg speedWind from/ knotsBaromVisibWave heightAir tempDewpointWater temp
2015-Jan-18 09:23S 25°36' E 154°06'7 9.0
2015-Jan-18 08:33S 25°43' E 154°06'27 9.1
2015-Jan-18 05:33S 26°10' E 154°06'10 9.8
2015-Jan-18 04:33S 26°20' E 154°06'89 9.8
2015-Jan-17 19:30S 27°49' E 154°02'102 9.3
2015-Jan-17 08:34S 29°29' E 153°39'189 9.0
2015-Jan-16 11:29S 32°34' E 152°53'6 6.8
2015-Jan-16 10:34S 32°40' E 152°51'9 7.0
2015-Jan-16 09:17S 32°48' E 152°48'7 7.1
2015-Jan-16 08:19S 32°55' E 152°46'282 9.7
2015-Jan-15 03:14S 37°09' E 150°19'2011.5
2015-Jan-15 01:30S 37°27' E 150°07'1212.5
2015-Jan-15 00:32S 37°38' E 150°00'1212.0
2015-Jan-14 23:33S 37°46' E 149°50'1211.6
2015-Jan-14 22:31S 37°54' E 149°39'12711.5
2015-Jan-14 11:28S 39°02' E 147°22'1212.9
2015-Jan-14 10:33S 39°06' E 147°08'1312.6
2015-Jan-14 09:33S 39°11' E 146°53'1212.5
2015-Jan-14 08:34S 39°16' E 146°38'1211.8
2015-Jan-14 07:33S 39°17' E 146°23'1111.4
2015-Jan-14 06:34S 39°16' E 146°09'219 5.7
2015-Jan-12 16:10S 38°21' E 141°37'0 0.0
2015-Jan-12 12:31S 38°21' E 141°37'0 0.0
2015-Jan-12 09:31S 38°21' E 141°37'0 0.0
2015-Jan-12 08:16S 38°21' E 141°37'0 0.0
2015-Jan-12 07:33S 38°21' E 141°37'0 0.0
2015-Jan-12 06:22S 38°21' E 141°37'0 0.0
2015-Jan-12 05:16S 38°21' E 141°37'0 0.0
2015-Jan-11 19:26S 38°21' E 141°37'0 0.0
2015-Jan-11 16:19S 38°21' E 141°37'0 0.0
2015-Jan-11 12:32S 38°21' E 141°37'0 0.0
2015-Jan-11 11:04S 38°21' E 141°37'0 0.0
2015-Jan-11 02:28S 38°21' E 141°37'0 0.0
2015-Jan-10 23:28S 38°21' E 141°37'4 3.8
2015-Jan-10 22:22S 38°19' E 141°42'0 0.2
2015-Jan-10 21:31S 38°19' E 141°41'0 0.1
2015-Jan-10 20:24S 38°19' E 141°41'0 0.0
2015-Jan-10 19:09S 38°19' E 141°41'0 0.0
2015-Jan-10 18:28S 38°19' E 141°41'0 0.0
2015-Jan-10 17:33S 38°19' E 141°41'0 0.1
2015-Jan-10 16:31S 38°19' E 141°41'0 0.1
2015-Jan-10 15:30S 38°19' E 141°41'0 0.0
2015-Jan-10 14:34S 38°19' E 141°41'0 0.0
2015-Jan-10 13:24S 38°19' E 141°41'0 0.1
2015-Jan-10 12:31S 38°19' E 141°41'0 0.0
2015-Jan-10 11:33S 38°19' E 141°41'0 0.1
2015-Jan-10 10:30S 38°19' E 141°41'0 0.0
2015-Jan-10 09:25S 38°19' E 141°41'0 0.0
2015-Jan-10 08:30S 38°19' E 141°41'0 0.0
2015-Jan-10 07:34S 38°19' E 141°41'0 0.0
2015-Jan-10 06:31S 38°19' E 141°41'0 0.0
2015-Jan-10 05:33S 38°19' E 141°41'0 0.0
2015-Jan-10 04:24S 38°19' E 141°41'0 0.0
2015-Jan-10 03:28S 38°19' E 141°41'0 0.0
2015-Jan-10 02:30S 38°19' E 141°41'0 0.0
2015-Jan-10 01:24S 38°19' E 141°41'0 0.1
2015-Jan-10 00:28S 38°19' E 141°41'0 0.0
2015-Jan-09 23:27S 38°19' E 141°41'0 0.0
2015-Jan-09 22:24S 38°19' E 141°41'0 0.0
2015-Jan-09 16:21S 38°19' E 141°41'0 0.0
2015-Jan-09 15:33S 38°19' E 141°41'0 0.0
2015-Jan-09 13:24S 38°19' E 141°41'0 0.1
2015-Jan-09 12:33S 38°19' E 141°41'0 0.0
2015-Jan-09 11:27S 38°19' E 141°41'0 0.0
2015-Jan-09 10:31S 38°19' E 141°41'0 0.0
2015-Jan-09 09:30S 38°19' E 141°41'0 0.0
2015-Jan-09 08:18S 38°19' E 141°41'0 0.1
2015-Jan-09 07:30S 38°19' E 141°41'0 0.0
2015-Jan-09 06:18S 38°19' E 141°41'0 0.1
2015-Jan-09 05:31S 38°19' E 141°41'0 0.1
2015-Jan-09 04:33S 38°19' E 141°41'0 0.0
2015-Jan-09 03:27S 38°19' E 141°41'0 0.1
2015-Jan-09 02:33S 38°19' E 141°41'0 0.0
2015-Jan-09 01:24S 38°19' E 141°41'0 0.0
2015-Jan-09 00:31S 38°19' E 141°41'0 0.0
2015-Jan-08 22:28S 38°19' E 141°41'0 0.0
2015-Jan-08 21:28S 38°19' E 141°41'0 0.0
2015-Jan-08 20:33S 38°19' E 141°41'0 0.1
2015-Jan-08 19:34S 38°19' E 141°41'0 0.0
2015-Jan-08 18:30S 38°19' E 141°41'0 0.0
2015-Jan-08 17:30S 38°19' E 141°41'0 0.0
2015-Jan-08 16:33S 38°19' E 141°41'0 0.0
2015-Jan-08 15:33S 38°19' E 141°42'0 0.1
2015-Jan-08 14:34S 38°19' E 141°41'0 0.0
2015-Jan-08 13:33S 38°19' E 141°41'0 0.0
2015-Jan-08 12:33S 38°19' E 141°41'0 0.0
2015-Jan-08 11:34S 38°19' E 141°42'0 0.0
2015-Jan-08 10:33S 38°19' E 141°42'0 0.0
2015-Jan-08 09:33S 38°19' E 141°42'  

Dump ship's entire track history